Time;durP1;ratioP1;P1;durP2;ratioP2;P2;SDS_P1;SDS_P2;PMS_P1;PMS_P2;Temp;Humidity;BMP_temperature;BMP_pressure;BME280_temperature;BME280_humidity;BME280_pressure;Samples;Min_cycle;Max_cycle;Signal;HPM_P1;HPM_P2
2023/01/30 00:01:30;;;;;;;62.72;44.38;;;;;;;;;;5014017;28;20437;-70
2023/01/30 00:03:55;;;;;;;59.25;44.53;;;;;;;;;;5020345;28;20080;-71
2023/01/30 00:06:21;;;;;;;42.65;32.55;;;;;;;;;;5014445;28;20445;-71
2023/01/30 00:08:46;;;;;;;41.47;30.63;;;;;;;;;;5022609;28;20025;-71
2023/01/30 00:11:13;;;;;;;39.30;29.30;;;;;;;;;;5022229;28;20080;-73
2023/01/30 00:13:39;;;;;;;37.38;28.67;;;;;;;;;;5013983;28;20033;-72
2023/01/30 00:16:05;;;;;;;34.35;27.65;;;;;;;;;;5013545;28;20029;-72
2023/01/30 00:18:30;;;;;;;33.40;25.88;;;;;;;;;;5018313;28;20030;-69
2023/01/30 00:20:56;;;;;;;38.85;29.10;;;;;;;;;;5013764;28;20119;-71
2023/01/30 00:23:21;;;;;;;41.15;31.40;;;;;;;;;;5025451;28;20117;-70
2023/01/30 00:25:47;;;;;;;52.95;36.95;;;;;;;;;;5024725;28;20026;-71
2023/01/30 00:28:12;;;;;;;47.20;33.67;;;;;;;;;;5024537;28;20037;-70
2023/01/30 00:30:37;;;;;;;35.83;28.75;;;;;;;;;;5017622;28;20057;-74
2023/01/30 00:33:03;;;;;;;37.15;29.40;;;;;;;;;;5019830;28;20429;-72
2023/01/30 00:35:28;;;;;;;48.20;33.88;;;;;;;;;;5014354;28;20028;-75
2023/01/30 00:37:57;;;;;;;52.17;37.70;;;;;;;;;;5021286;28;20555;-72
2023/01/30 00:40:25;;;;;;;54.70;38.80;;;;;;;;;;5021409;28;20163;-71
2023/01/30 00:48:21;;;;;;;47.58;35.85;;;;;;;;;;5009956;28;20117;-72
2023/01/30 00:50:46;;;;;;;46.00;36.05;;;;;;;;;;5010743;28;20104;-73
2023/01/30 00:53:12;;;;;;;38.15;30.17;;;;;;;;;;5021122;28;20029;-70
2023/01/30 00:55:38;;;;;;;43.15;33.58;;;;;;;;;;5015302;28;20863;-70
2023/01/30 00:58:03;;;;;;;38.90;31.80;;;;;;;;;;5020731;28;20087;-72
2023/01/30 01:00:29;;;;;;;54.35;38.13;;;;;;;;;;5018921;28;20034;-70
2023/01/30 01:02:54;;;;;;;59.83;40.63;;;;;;;;;;5014356;28;20031;-72
2023/01/30 01:05:19;;;;;;;38.35;30.30;;;;;;;;;;5012711;28;20025;-71
2023/01/30 01:07:45;;;;;;;49.45;34.42;;;;;;;;;;5020457;28;20030;-70
2023/01/30 01:10:15;;;;;;;54.40;37.67;;;;;;;;;;5024645;28;20520;-74
2023/01/30 01:12:43;;;;;;;57.10;39.22;;;;;;;;;;5024341;28;20037;-74
2023/01/30 01:15:09;;;;;;;71.13;44.47;;;;;;;;;;5018554;28;20029;-69
2023/01/30 01:17:34;;;;;;;66.00;42.70;;;;;;;;;;5010346;28;20090;-70
2023/01/30 01:20:00;;;;;;;53.28;40.30;;;;;;;;;;5009973;28;20425;-70
2023/01/30 01:22:25;;;;;;;57.15;41.40;;;;;;;;;;5017447;28;20033;-73
2023/01/30 01:24:50;;;;;;;42.90;33.00;;;;;;;;;;5011125;28;20108;-70
2023/01/30 01:27:16;;;;;;;57.83;45.67;;;;;;;;;;5016293;28;20040;-71
2023/01/30 01:29:41;;;;;;;55.72;43.42;;;;;;;;;;5012283;28;21075;-71
2023/01/30 01:32:07;;;;;;;40.25;31.60;;;;;;;;;;5012875;28;20030;-70
2023/01/30 01:34:32;;;;;;;47.10;36.08;;;;;;;;;;5013727;28;20036;-70
2023/01/30 01:36:57;;;;;;;43.70;33.55;;;;;;;;;;5017147;28;20353;-70
2023/01/30 01:39:23;;;;;;;36.45;29.23;;;;;;;;;;5022579;28;20327;-70
2023/01/30 01:41:48;;;;;;;38.47;29.75;;;;;;;;;;5020055;28;20132;-72
2023/01/30 01:44:15;;;;;;;35.63;28.92;;;;;;;;;;5014569;28;20040;-71
2023/01/30 01:46:47;;;;;;;44.88;35.78;;;;;;;;;;5022763;28;20021;-71
2023/01/30 01:49:14;;;;;;;52.42;39.65;;;;;;;;;;5008858;28;20090;-74
2023/01/30 01:51:48;;;;;;;41.00;31.65;;;;;;;;;;5015137;28;20121;-71
2023/01/30 01:54:24;;;;;;;36.95;30.05;;;;;;;;;;5021910;28;20064;-71
2023/01/30 01:56:50;;;;;;;32.53;28.33;;;;;;;;;;5022968;28;20043;-71
2023/01/30 01:59:21;;;;;;;37.42;30.13;;;;;;;;;;5017529;28;20025;-71
2023/01/30 02:01:48;;;;;;;34.42;28.10;;;;;;;;;;5017689;28;20107;-71
2023/01/30 02:05:00;;;;;;;34.80;27.67;;;;;;;;;;5012452;28;20036;-71
2023/01/30 02:06:58;;;;;;;35.50;28.52;;;;;;;;;;5008282;28;20440;-71
2023/01/30 02:09:24;;;;;;;67.88;46.10;;;;;;;;;;5020675;28;20034;-73
2023/01/30 02:11:53;;;;;;;47.17;37.42;;;;;;;;;;5022037;28;20025;-73
2023/01/30 02:14:19;;;;;;;82.53;57.08;;;;;;;;;;5021762;28;20025;-74
2023/01/30 02:16:45;;;;;;;133.68;102.57;;;;;;;;;;5020488;28;20033;-71
2023/01/30 02:19:22;;;;;;;62.38;45.58;;;;;;;;;;5012354;28;20035;-71
2023/01/30 02:22:05;;;;;;;39.55;30.65;;;;;;;;;;5008648;28;20044;-71
2023/01/30 02:24:41;;;;;;;38.90;31.95;;;;;;;;;;5035497;28;20047;-72
2023/01/30 02:27:16;;;;;;;37.15;29.67;;;;;;;;;;5023323;28;20044;-71
2023/01/30 02:29:41;;;;;;;42.47;33.22;;;;;;;;;;5020489;28;20090;-73
2023/01/30 02:32:18;;;;;;;42.95;32.08;;;;;;;;;;5020316;28;20445;-72
2023/01/30 02:34:56;;;;;;;42.28;31.98;;;;;;;;;;5012084;28;20418;-71
2023/01/30 02:37:25;;;;;;;41.83;32.70;;;;;;;;;;5012023;28;20045;-73
2023/01/30 02:40:01;;;;;;;45.30;35.05;;;;;;;;;;5018656;28;20113;-72
2023/01/30 02:42:29;;;;;;;48.47;35.55;;;;;;;;;;5016094;28;20428;-72
2023/01/30 02:45:25;;;;;;;54.05;38.60;;;;;;;;;;5023483;28;20503;-72
2023/01/30 02:47:55;;;;;;;48.17;36.10;;;;;;;;;;5016767;28;20049;-72
2023/01/30 02:50:39;;;;;;;51.05;38.92;;;;;;;;;;5008971;28;20072;-72
2023/01/30 02:53:04;;;;;;;48.45;37.80;;;;;;;;;;5014707;28;20413;-71
2023/01/30 02:55:30;;;;;;;48.53;35.88;;;;;;;;;;5020346;28;20108;-71
2023/01/30 02:57:55;;;;;;;45.85;34.97;;;;;;;;;;5021169;28;20048;-71
2023/01/30 03:00:26;;;;;;;41.38;31.15;;;;;;;;;;5014950;28;20084;-71
2023/01/30 03:03:17;;;;;;;44.58;34.63;;;;;;;;;;5014209;28;20037;-74
2023/01/30 03:05:45;;;;;;;44.92;33.95;;;;;;;;;;5012149;28;20060;-74
2023/01/30 03:08:16;;;;;;;42.50;31.77;;;;;;;;;;5018208;28;20037;-76
2023/01/30 03:10:47;;;;;;;48.53;42.78;;;;;;;;;;5024849;28;20048;-72
2023/01/30 03:13:16;;;;;;;40.28;32.80;;;;;;;;;;5024685;28;20021;-71
2023/01/30 03:15:44;;;;;;;40.53;31.10;;;;;;;;;;5020340;28;20032;-71
2023/01/30 03:18:10;;;;;;;42.67;33.35;;;;;;;;;;5010605;28;20480;-70
2023/01/30 03:20:36;;;;;;;42.15;32.75;;;;;;;;;;5014139;28;20021;-71
2023/01/30 03:23:01;;;;;;;38.40;29.70;;;;;;;;;;5018916;28;20151;-72
2023/01/30 03:25:27;;;;;;;42.22;31.02;;;;;;;;;;5024576;28;20447;-71
2023/01/30 03:27:53;;;;;;;40.03;30.13;;;;;;;;;;5022665;28;20029;-71
2023/01/30 03:30:18;;;;;;;34.53;26.17;;;;;;;;;;5025373;28;20030;-71
2023/01/30 03:32:43;;;;;;;36.85;28.02;;;;;;;;;;5020420;28;20040;-70
2023/01/30 03:35:09;;;;;;;31.98;23.95;;;;;;;;;;5010300;28;20159;-74
2023/01/30 03:37:34;;;;;;;29.48;24.13;;;;;;;;;;5015422;28;20037;-72
2023/01/30 03:40:00;;;;;;;31.92;24.60;;;;;;;;;;5025951;28;20471;-70
2023/01/30 03:42:25;;;;;;;26.38;21.75;;;;;;;;;;5015502;28;20113;-72
2023/01/30 03:44:50;;;;;;;34.13;26.17;;;;;;;;;;5025791;28;20025;-71
2023/01/30 03:47:16;;;;;;;34.22;24.73;;;;;;;;;;5024158;28;20084;-70
2023/01/30 03:49:41;;;;;;;28.40;22.75;;;;;;;;;;5025622;28;20028;-71
2023/01/30 03:52:06;;;;;;;34.53;25.50;;;;;;;;;;5025292;28;20026;-71
2023/01/30 03:54:32;;;;;;;32.33;23.85;;;;;;;;;;5017259;28;20534;-71
2023/01/30 03:56:57;;;;;;;34.22;25.65;;;;;;;;;;5024547;28;20357;-70
2023/01/30 03:59:22;;;;;;;34.13;26.63;;;;;;;;;;5025830;28;20072;-71
2023/01/30 04:01:48;;;;;;;39.05;28.52;;;;;;;;;;5026053;28;20124;-71
2023/01/30 04:04:13;;;;;;;33.25;25.98;;;;;;;;;;5018200;28;20568;-73
2023/01/30 04:06:38;;;;;;;30.92;25.10;;;;;;;;;;5021574;28;20345;-70
2023/01/30 04:09:03;;;;;;;30.67;24.13;;;;;;;;;;5025408;28;20108;-72
2023/01/30 04:11:29;;;;;;;38.25;28.83;;;;;;;;;;5012469;28;20053;-73
2023/01/30 04:13:54;;;;;;;48.53;36.88;;;;;;;;;;5010944;28;20018;-70
2023/01/30 04:16:20;;;;;;;37.58;29.77;;;;;;;;;;5010801;28;20057;-70
2023/01/30 04:18:46;;;;;;;30.02;23.15;;;;;;;;;;5011413;28;20029;-69
2023/01/30 04:21:12;;;;;;;28.15;22.80;;;;;;;;;;5018617;28;20041;-70
2023/01/30 04:23:37;;;;;;;31.23;24.77;;;;;;;;;;5024154;28;20043;-72
2023/01/30 04:26:03;;;;;;;34.10;26.60;;;;;;;;;;5016894;28;20037;-73
2023/01/30 04:28:28;;;;;;;30.48;24.45;;;;;;;;;;5013378;28;20044;-74
2023/01/30 04:30:53;;;;;;;29.70;22.75;;;;;;;;;;5012559;28;20469;-73
2023/01/30 04:33:19;;;;;;;30.92;24.83;;;;;;;;;;5011805;28;20083;-72
2023/01/30 04:36:10;;;;;;;34.55;26.98;;;;;;;;;;5011869;28;20025;-72
2023/01/30 04:38:35;;;;;;;33.03;24.95;;;;;;;;;;5008485;28;20080;-71
2023/01/30 04:41:01;;;;;;;37.97;30.48;;;;;;;;;;5009296;28;20529;-73
2023/01/30 04:43:27;;;;;;;57.05;43.95;;;;;;;;;;5005668;28;20152;-71
2023/01/30 04:45:52;;;;;;;53.03;39.72;;;;;;;;;;5008944;28;20037;-71
2023/01/30 04:48:18;;;;;;;50.78;38.53;;;;;;;;;;5014061;28;20463;-71
2023/01/30 04:50:46;;;;;;;77.40;52.85;;;;;;;;;;5009046;28;20552;-70
2023/01/30 04:53:11;;;;;;;45.30;33.22;;;;;;;;;;5008240;28;20111;-73
2023/01/30 04:55:37;;;;;;;45.88;34.38;;;;;;;;;;5007376;28;20504;-73
2023/01/30 04:58:02;;;;;;;41.08;31.98;;;;;;;;;;5015269;28;20626;-74
2023/01/30 05:00:28;;;;;;;43.25;33.00;;;;;;;;;;5020688;28;20072;-72
2023/01/30 05:02:54;;;;;;;63.20;49.55;;;;;;;;;;5020741;28;20049;-73
2023/01/30 05:05:20;;;;;;;64.10;49.50;;;;;;;;;;5022166;28;20427;-70
2023/01/30 05:07:46;;;;;;;60.33;47.28;;;;;;;;;;5022048;28;20048;-74
2023/01/30 05:10:11;;;;;;;49.35;40.05;;;;;;;;;;5021393;28;20029;-71
2023/01/30 05:12:36;;;;;;;40.10;31.95;;;;;;;;;;5020659;28;20025;-71
2023/01/30 05:15:02;;;;;;;56.88;45.95;;;;;;;;;;5017374;28;20508;-71
2023/01/30 05:17:27;;;;;;;57.35;47.00;;;;;;;;;;5013617;28;20112;-73
2023/01/30 05:19:52;;;;;;;39.22;32.17;;;;;;;;;;5023372;28;20627;-72
2023/01/30 05:22:17;;;;;;;37.30;28.17;;;;;;;;;;5020447;28;20072;-71
2023/01/30 05:24:43;;;;;;;35.45;26.92;;;;;;;;;;5016976;28;20036;-72
2023/01/30 05:27:08;;;;;;;34.13;28.17;;;;;;;;;;5023604;28;20029;-71
2023/01/30 05:29:33;;;;;;;35.47;29.95;;;;;;;;;;5023088;28;20036;-71
2023/01/30 05:31:59;;;;;;;32.65;27.73;;;;;;;;;;5024127;28;20468;-71
2023/01/30 05:34:24;;;;;;;37.00;28.92;;;;;;;;;;5024279;28;20019;-73
2023/01/30 05:36:49;;;;;;;34.38;28.42;;;;;;;;;;5023051;28;20124;-74
2023/01/30 05:39:15;;;;;;;43.00;31.60;;;;;;;;;;5021795;28;20021;-71
2023/01/30 05:41:40;;;;;;;68.03;48.92;;;;;;;;;;5014116;28;20028;-73
2023/01/30 05:44:05;;;;;;;60.10;43.42;;;;;;;;;;5014737;28;20056;-72
2023/01/30 05:46:31;;;;;;;90.40;67.03;;;;;;;;;;5022505;28;20025;-72
2023/01/30 05:48:56;;;;;;;53.28;41.13;;;;;;;;;;5024645;28;20029;-71
2023/01/30 05:51:22;;;;;;;38.67;30.52;;;;;;;;;;5022819;28;20029;-71
2023/01/30 05:53:48;;;;;;;60.92;46.67;;;;;;;;;;5023444;28;20033;-71
2023/01/30 05:56:13;;;;;;;51.85;39.92;;;;;;;;;;5008390;28;20624;-72
2023/01/30 05:58:39;;;;;;;46.22;37.67;;;;;;;;;;5009530;28;20471;-74
2023/01/30 06:01:06;;;;;;;41.42;34.20;;;;;;;;;;5015609;28;20052;-73
2023/01/30 06:03:31;;;;;;;46.38;37.42;;;;;;;;;;5010269;28;20449;-70
2023/01/30 06:05:56;;;;;;;55.95;44.25;;;;;;;;;;5021556;28;20034;-71
2023/01/30 06:08:22;;;;;;;39.92;31.30;;;;;;;;;;5023316;28;20033;-69
2023/01/30 06:10:47;;;;;;;37.88;29.10;;;;;;;;;;5022266;28;20444;-70
2023/01/30 06:13:13;;;;;;;39.00;32.40;;;;;;;;;;5023673;28;20067;-74
2023/01/30 06:15:38;;;;;;;35.50;30.25;;;;;;;;;;5011762;28;20065;-71
2023/01/30 06:18:04;;;;;;;38.65;31.80;;;;;;;;;;5014930;28;20094;-71
2023/01/30 06:20:29;;;;;;;39.53;34.05;;;;;;;;;;5024189;28;20429;-73
2023/01/30 06:22:54;;;;;;;34.25;28.80;;;;;;;;;;5023392;28;20028;-69
2023/01/30 06:25:19;;;;;;;37.67;29.25;;;;;;;;;;5021423;28;20034;-71
2023/01/30 06:27:45;;;;;;;43.00;33.80;;;;;;;;;;5021965;28;20033;-72
2023/01/30 06:30:11;;;;;;;82.50;73.25;;;;;;;;;;5021327;28;20033;-75
2023/01/30 06:32:36;;;;;;;42.90;34.95;;;;;;;;;;5023922;28;20029;-71
2023/01/30 06:35:01;;;;;;;37.72;31.35;;;;;;;;;;5023007;28;20026;-71
2023/01/30 06:37:27;;;;;;;46.83;39.05;;;;;;;;;;5023666;28;20038;-75
2023/01/30 06:39:52;;;;;;;65.93;58.70;;;;;;;;;;5021148;28;20109;-72
2023/01/30 06:42:17;;;;;;;35.90;31.48;;;;;;;;;;5024935;28;20053;-72
2023/01/30 06:44:43;;;;;;;37.35;30.58;;;;;;;;;;5028862;28;20120;-76
2023/01/30 06:47:08;;;;;;;57.55;43.40;;;;;;;;;;5027193;28;20041;-73
2023/01/30 06:49:33;;;;;;;29.80;23.25;;;;;;;;;;5026706;28;20090;-72
2023/01/30 06:51:58;;;;;;;47.17;37.40;;;;;;;;;;5025083;28;20437;-72
2023/01/30 06:54:24;;;;;;;41.65;34.15;;;;;;;;;;5025566;28;20017;-72
2023/01/30 06:56:49;;;;;;;43.00;35.08;;;;;;;;;;5027423;28;20076;-72
2023/01/30 06:59:14;;;;;;;37.85;31.83;;;;;;;;;;5026583;28;20040;-72
2023/01/30 07:01:40;;;;;;;34.00;27.77;;;;;;;;;;5027307;28;20021;-72
2023/01/30 07:04:05;;;;;;;38.83;33.65;;;;;;;;;;5018850;28;20084;-73
2023/01/30 07:06:30;;;;;;;66.03;53.33;;;;;;;;;;5016773;28;20040;-72
2023/01/30 07:08:57;;;;;;;52.17;45.97;;;;;;;;;;5013609;28;20017;-72
2023/01/30 07:11:22;;;;;;;47.22;41.08;;;;;;;;;;5026369;28;20083;-72
2023/01/30 07:13:48;;;;;;;52.63;45.10;;;;;;;;;;5025573;28;20034;-72
2023/01/30 07:16:13;;;;;;;52.90;41.97;;;;;;;;;;5026729;28;20472;-71
2023/01/30 07:18:38;;;;;;;46.33;38.88;;;;;;;;;;5026866;28;20041;-72
2023/01/30 07:21:04;;;;;;;38.78;34.03;;;;;;;;;;5026817;28;20029;-72
2023/01/30 07:23:29;;;;;;;47.97;40.92;;;;;;;;;;5025817;28;20412;-71
2023/01/30 07:25:54;;;;;;;59.03;49.55;;;;;;;;;;5025877;28;20040;-72
2023/01/30 07:28:20;;;;;;;43.55;34.92;;;;;;;;;;5023652;28;20037;-74
2023/01/30 07:30:45;;;;;;;35.10;29.48;;;;;;;;;;5014806;28;20025;-75
2023/01/30 07:33:10;;;;;;;43.35;34.85;;;;;;;;;;5025886;28;20029;-72
2023/01/30 07:35:36;;;;;;;53.00;42.55;;;;;;;;;;5024575;28;20037;-75
2023/01/30 07:38:01;;;;;;;56.67;43.30;;;;;;;;;;5010744;28;20030;-73
2023/01/30 07:40:26;;;;;;;58.17;44.92;;;;;;;;;;5020468;28;20818;-71
2023/01/30 07:43:13;;;;;;;54.03;40.00;;;;;;;;;;5024749;28;20049;-72
2023/01/30 07:45:39;;;;;;;61.08;47.83;;;;;;;;;;5026941;28;20025;-72
2023/01/30 07:48:05;;;;;;;66.78;48.88;;;;;;;;;;5025037;28;20120;-74
2023/01/30 07:50:30;;;;;;;32.95;24.70;;;;;;;;;;5024323;28;20136;-72
2023/01/30 07:52:56;;;;;;;69.47;50.75;;;;;;;;;;5017033;28;20449;-72
2023/01/30 07:55:21;;;;;;;61.85;43.85;;;;;;;;;;5010292;28;20075;-73
2023/01/30 07:57:46;;;;;;;111.00;82.30;;;;;;;;;;5012757;28;20033;-72
2023/01/30 08:00:12;;;;;;;53.47;41.58;;;;;;;;;;5011043;28;20390;-72
2023/01/30 08:02:38;;;;;;;88.10;66.45;;;;;;;;;;5011653;28;20434;-74
2023/01/30 08:05:03;;;;;;;50.92;42.28;;;;;;;;;;5012611;28;20048;-71
2023/01/30 08:07:28;;;;;;;42.47;34.58;;;;;;;;;;5011751;28;20033;-73
2023/01/30 08:09:54;;;;;;;55.47;43.10;;;;;;;;;;5009619;28;20452;-72
2023/01/30 08:12:19;;;;;;;38.67;30.70;;;;;;;;;;5009497;28;20113;-72
2023/01/30 08:14:44;;;;;;;39.67;29.35;;;;;;;;;;5012773;28;20029;-72
2023/01/30 08:17:10;;;;;;;36.97;29.42;;;;;;;;;;5011272;28;20041;-74
2023/01/30 08:19:35;;;;;;;50.33;35.28;;;;;;;;;;5012686;28;20021;-72
2023/01/30 08:22:03;;;;;;;41.13;30.23;;;;;;;;;;5012782;28;20025;-71
2023/01/30 08:24:28;;;;;;;51.97;38.22;;;;;;;;;;5012151;28;20406;-71
2023/01/30 08:26:54;;;;;;;45.30;34.25;;;;;;;;;;5013913;28;20140;-71
2023/01/30 08:29:19;;;;;;;35.22;26.10;;;;;;;;;;5010812;28;20029;-72
2023/01/30 08:31:44;;;;;;;67.35;51.50;;;;;;;;;;5011852;28;20040;-72
2023/01/30 08:34:10;;;;;;;45.60;34.10;;;;;;;;;;5010400;28;20018;-72
2023/01/30 08:36:35;;;;;;;67.15;48.50;;;;;;;;;;5011637;28;20060;-71
2023/01/30 08:39:00;;;;;;;90.32;66.00;;;;;;;;;;5009386;28;20045;-71
2023/01/30 08:41:27;;;;;;;62.65;51.92;;;;;;;;;;5009251;28;20458;-74
2023/01/30 08:43:52;;;;;;;54.05;46.72;;;;;;;;;;5011727;28;20056;-72
2023/01/30 08:46:20;;;;;;;59.60;45.55;;;;;;;;;;5010907;28;20515;-75
2023/01/30 08:48:46;;;;;;;97.03;71.85;;;;;;;;;;5010604;28;20064;-73
2023/01/30 08:51:11;;;;;;;125.78;94.00;;;;;;;;;;5028288;28;20053;-72
2023/01/30 08:53:37;;;;;;;79.70;57.70;;;;;;;;;;5011155;28;20029;-75
2023/01/30 08:56:02;;;;;;;62.08;48.60;;;;;;;;;;5012552;28;20056;-73
2023/01/30 08:58:27;;;;;;;98.28;72.53;;;;;;;;;;5009504;28;20099;-73
2023/01/30 09:00:53;;;;;;;93.65;68.18;;;;;;;;;;5010561;28;20040;-73
2023/01/30 09:03:18;;;;;;;61.65;45.20;;;;;;;;;;5010014;28;20445;-72
2023/01/30 09:05:43;;;;;;;59.17;42.10;;;;;;;;;;5013031;28;20025;-72
2023/01/30 09:08:09;;;;;;;52.28;37.28;;;;;;;;;;5009901;28;20119;-72
2023/01/30 09:10:34;;;;;;;51.55;42.40;;;;;;;;;;5011730;28;20031;-72
2023/01/30 09:12:59;;;;;;;42.65;33.60;;;;;;;;;;5011547;28;20075;-73
2023/01/30 09:15:25;;;;;;;50.25;39.17;;;;;;;;;;5013191;28;20025;-73
2023/01/30 09:17:51;;;;;;;70.30;49.72;;;;;;;;;;5010098;28;20067;-72
2023/01/30 09:20:17;;;;;;;46.78;35.15;;;;;;;;;;5011050;28;20156;-72
2023/01/30 09:22:42;;;;;;;70.32;50.22;;;;;;;;;;5011330;28;20596;-75
2023/01/30 09:25:08;;;;;;;96.28;70.85;;;;;;;;;;5011635;28;20025;-73
2023/01/30 09:27:34;;;;;;;71.45;54.17;;;;;;;;;;5010226;28;20022;-73
2023/01/30 09:29:59;;;;;;;50.78;39.53;;;;;;;;;;5009155;28;20762;-72
2023/01/30 09:32:24;;;;;;;40.25;31.85;;;;;;;;;;5012587;28;20064;-72
2023/01/30 09:34:49;;;;;;;57.60;42.70;;;;;;;;;;5009586;28;20056;-75
2023/01/30 09:37:15;;;;;;;84.47;61.35;;;;;;;;;;5010716;28;20043;-74
2023/01/30 09:39:40;;;;;;;68.35;51.55;;;;;;;;;;5010349;28;20033;-72
2023/01/30 09:42:11;;;;;;;49.55;36.47;;;;;;;;;;5016588;28;20057;-72
2023/01/30 09:44:54;;;;;;;63.83;46.28;;;;;;;;;;5019120;28;20026;-73
2023/01/30 09:47:27;;;;;;;42.30;32.78;;;;;;;;;;5009926;28;20219;-73
2023/01/30 09:50:18;;;;;;;37.67;32.63;;;;;;;;;;5007774;28;20014;-72
2023/01/30 09:52:43;;;;;;;40.22;33.60;;;;;;;;;;5008922;28;20300;-72
2023/01/30 09:55:17;;;;;;;44.45;38.38;;;;;;;;;;5010402;28;20033;-73
2023/01/30 09:57:42;;;;;;;79.03;50.58;;;;;;;;;;5011403;28;20043;-72
2023/01/30 10:00:11;;;;;;;42.30;35.30;;;;;;;;;;5009873;28;20033;-74
2023/01/30 10:02:52;;;;;;;63.63;51.30;;;;;;;;;;5010368;28;20083;-75
2023/01/30 10:05:18;;;;;;;60.50;46.88;;;;;;;;;;5010751;28;20161;-74
2023/01/30 10:07:55;;;;;;;44.90;34.80;;;;;;;;;;5007546;28;20437;-73
2023/01/30 10:10:21;;;;;;;52.83;40.30;;;;;;;;;;5009331;28;20034;-74
2023/01/30 10:13:05;;;;;;;63.42;51.47;;;;;;;;;;5009689;28;20086;-72
2023/01/30 10:15:30;;;;;;;67.20;50.20;;;;;;;;;;5010331;28;20025;-71
2023/01/30 10:18:15;;;;;;;62.33;50.00;;;;;;;;;;5020888;28;20037;-72
2023/01/30 10:20:40;;;;;;;32.03;27.10;;;;;;;;;;5022989;28;20045;-72
2023/01/30 10:23:24;;;;;;;45.55;36.13;;;;;;;;;;5022832;28;20044;-72
2023/01/30 10:25:51;;;;;;;73.32;53.42;;;;;;;;;;5020703;28;20018;-72
2023/01/30 10:28:36;;;;;;;47.47;41.88;;;;;;;;;;5022855;28;20040;-72
2023/01/30 10:31:08;;;;;;;36.30;30.05;;;;;;;;;;5022212;28;20468;-74
2023/01/30 10:33:43;;;;;;;38.97;32.10;;;;;;;;;;5022326;28;20106;-73
2023/01/30 10:36:13;;;;;;;42.70;33.85;;;;;;;;;;5022975;28;20103;-76
2023/01/30 10:38:40;;;;;;;40.58;31.88;;;;;;;;;;5024613;28;20484;-74
2023/01/30 10:41:14;;;;;;;76.80;62.00;;;;;;;;;;5021426;28;20023;-74
2023/01/30 10:43:43;;;;;;;64.13;53.83;;;;;;;;;;5021504;28;20053;-72
2023/01/30 10:46:14;;;;;;;66.55;47.47;;;;;;;;;;5021431;28;20461;-72
2023/01/30 10:48:49;;;;;;;60.17;44.13;;;;;;;;;;5012403;28;20060;-74
2023/01/30 10:51:21;;;;;;;65.70;50.47;;;;;;;;;;5022636;28;20037;-73
2023/01/30 10:53:52;;;;;;;60.10;41.03;;;;;;;;;;5022142;28;20057;-74
2023/01/30 10:56:24;;;;;;;50.28;38.88;;;;;;;;;;5022252;28;20031;-73
2023/01/30 10:58:54;;;;;;;47.17;37.47;;;;;;;;;;5021463;28;20037;-72
2023/01/30 11:01:24;;;;;;;73.05;56.72;;;;;;;;;;5022733;28;20034;-75
2023/01/30 11:03:55;;;;;;;46.63;35.45;;;;;;;;;;5023360;28;20040;-72
2023/01/30 11:06:24;;;;;;;63.95;47.33;;;;;;;;;;5023607;28;20725;-76
2023/01/30 11:08:50;;;;;;;38.80;30.00;;;;;;;;;;5022730;28;20029;-72
2023/01/30 11:11:39;;;;;;;43.88;34.92;;;;;;;;;;5024093;28;20044;-73
2023/01/30 11:14:05;;;;;;;70.28;57.13;;;;;;;;;;5020874;28;20371;-71
2023/01/30 11:16:32;;;;;;;32.58;25.23;;;;;;;;;;5021438;28;20388;-74
2023/01/30 11:19:00;;;;;;;33.47;29.25;;;;;;;;;;5022401;28;20266;-72
2023/01/30 11:21:27;;;;;;;38.30;30.70;;;;;;;;;;5021189;28;20025;-71
2023/01/30 11:23:53;;;;;;;30.98;27.10;;;;;;;;;;5021780;28;20029;-72
2023/01/30 11:26:18;;;;;;;41.45;36.63;;;;;;;;;;5022330;28;20044;-72
2023/01/30 11:28:45;;;;;;;72.90;54.95;;;;;;;;;;5023357;28;20029;-72
2023/01/30 11:31:29;;;;;;;47.17;36.80;;;;;;;;;;5026918;28;20338;-72
2023/01/30 11:34:02;;;;;;;65.72;54.15;;;;;;;;;;5026498;28;20022;-72
2023/01/30 11:36:32;;;;;;;49.03;42.33;;;;;;;;;;5025974;28;20357;-72
2023/01/30 11:38:59;;;;;;;46.95;39.83;;;;;;;;;;5027067;28;20037;-72
2023/01/30 11:41:24;;;;;;;34.28;29.23;;;;;;;;;;5026703;28;20061;-71
2023/01/30 11:43:50;;;;;;;32.40;27.63;;;;;;;;;;5025657;28;20038;-72
2023/01/30 11:46:17;;;;;;;36.83;31.85;;;;;;;;;;5024586;28;20365;-73
2023/01/30 11:48:48;;;;;;;52.63;41.22;;;;;;;;;;5024599;28;20057;-72
2023/01/30 11:51:13;;;;;;;42.50;32.83;;;;;;;;;;5025539;28;20017;-73
2023/01/30 11:53:44;;;;;;;51.60;38.30;;;;;;;;;;5026871;28;20031;-71
2023/01/30 11:56:21;;;;;;;48.88;38.50;;;;;;;;;;5023436;28;20045;-72
2023/01/30 11:58:51;;;;;;;53.70;43.47;;;;;;;;;;5024761;28;20056;-72
2023/01/30 12:01:16;;;;;;;40.63;34.00;;;;;;;;;;5024406;28;20029;-72
2023/01/30 12:03:46;;;;;;;45.83;40.13;;;;;;;;;;5024476;28;20322;-72
2023/01/30 12:06:19;;;;;;;36.78;32.28;;;;;;;;;;5026025;28;20025;-73
2023/01/30 12:08:44;;;;;;;38.45;31.85;;;;;;;;;;5023931;28;20334;-72
2023/01/30 12:11:23;;;;;;;32.20;26.70;;;;;;;;;;5025342;28;20032;-72
2023/01/30 12:13:50;;;;;;;41.53;34.43;;;;;;;;;;5025598;28;20095;-71
2023/01/30 12:16:24;;;;;;;35.83;28.88;;;;;;;;;;5025737;28;20448;-72
2023/01/30 12:18:49;;;;;;;33.15;26.63;;;;;;;;;;5024828;28;20026;-72
2023/01/30 12:21:14;;;;;;;38.00;30.40;;;;;;;;;;5023964;28;20081;-71
2023/01/30 12:23:46;;;;;;;33.45;28.60;;;;;;;;;;5024190;28;20086;-74
2023/01/30 12:26:17;;;;;;;34.65;27.20;;;;;;;;;;5026668;28;20452;-72
2023/01/30 12:29:00;;;;;;;34.85;28.05;;;;;;;;;;5025027;28;20418;-74
2023/01/30 12:31:31;;;;;;;54.50;40.08;;;;;;;;;;5024744;28;20435;-73
2023/01/30 12:33:56;;;;;;;52.65;39.67;;;;;;;;;;5025002;28;20035;-74
2023/01/30 12:36:40;;;;;;;80.85;58.05;;;;;;;;;;5023920;28;20558;-72
2023/01/30 12:39:24;;;;;;;72.95;50.35;;;;;;;;;;5024309;28;20381;-72
2023/01/30 12:42:03;;;;;;;40.35;31.40;;;;;;;;;;5023617;28;20030;-71
2023/01/30 12:44:47;;;;;;;33.97;27.13;;;;;;;;;;5026809;28;20029;-71
2023/01/30 12:47:12;;;;;;;52.30;40.95;;;;;;;;;;5025887;28;20017;-74
2023/01/30 12:49:49;;;;;;;41.70;31.02;;;;;;;;;;5024897;28;20060;-74
2023/01/30 12:52:29;;;;;;;39.78;33.72;;;;;;;;;;5024268;28;20034;-72
2023/01/30 12:54:54;;;;;;;41.35;31.55;;;;;;;;;;5026470;28;20052;-71
2023/01/30 12:57:20;;;;;;;56.55;40.05;;;;;;;;;;5024774;28;20075;-73
2023/01/30 13:00:11;;;;;;;67.65;50.30;;;;;;;;;;5026406;28;20480;-71
2023/01/30 13:02:55;;;;;;;50.13;34.65;;;;;;;;;;5023605;28;20053;-71
2023/01/30 13:05:21;;;;;;;63.95;49.53;;;;;;;;;;5024615;28;20056;-72
2023/01/30 13:07:55;;;;;;;44.67;37.53;;;;;;;;;;5024779;28;20056;-72
2023/01/30 13:10:34;;;;;;;37.60;29.70;;;;;;;;;;5024851;28;20035;-72
2023/01/30 13:13:02;;;;;;;45.35;34.17;;;;;;;;;;5025963;28;20025;-72
2023/01/30 13:15:33;;;;;;;49.95;38.28;;;;;;;;;;5023509;28;20037;-73
2023/01/30 13:17:58;;;;;;;64.75;45.28;;;;;;;;;;5024132;28;20084;-72
2023/01/30 13:20:47;;;;;;;106.63;74.75;;;;;;;;;;5023546;28;20488;-72
2023/01/30 13:23:15;;;;;;;128.32;93.85;;;;;;;;;;5017967;28;20095;-75
2023/01/30 13:25:41;;;;;;;119.28;86.95;;;;;;;;;;5025329;28;20109;-75
2023/01/30 13:28:16;;;;;;;114.47;85.88;;;;;;;;;;5023045;28;20143;-72
2023/01/30 13:30:43;;;;;;;107.45;79.68;;;;;;;;;;5023450;28;20021;-73
2023/01/30 13:33:28;;;;;;;47.58;39.08;;;;;;;;;;5023943;28;20093;-72
2023/01/30 13:36:12;;;;;;;42.63;33.50;;;;;;;;;;5023863;28;20065;-73
2023/01/30 13:38:40;;;;;;;60.55;44.42;;;;;;;;;;5024721;28;20472;-72
2023/01/30 13:41:08;;;;;;;45.88;36.20;;;;;;;;;;5024316;28;20144;-73
2023/01/30 13:43:39;;;;;;;41.38;32.97;;;;;;;;;;5024051;28;20076;-72
2023/01/30 13:46:10;;;;;;;43.28;35.97;;;;;;;;;;5022558;28;20030;-71
2023/01/30 13:48:35;;;;;;;35.22;29.00;;;;;;;;;;5022461;28;22549;-72
2023/01/30 13:51:30;;;;;;;38.92;30.13;;;;;;;;;;5023066;28;20426;-72
2023/01/30 13:53:55;;;;;;;42.50;34.92;;;;;;;;;;5013217;28;20116;-71
2023/01/30 13:56:39;;;;;;;48.20;37.15;;;;;;;;;;5023847;28;20532;-71
2023/01/30 13:59:13;;;;;;;50.78;37.72;;;;;;;;;;5022730;28;20510;-72
2023/01/30 14:01:57;;;;;;;46.33;32.10;;;;;;;;;;5023677;28;20025;-72
2023/01/30 14:04:41;;;;;;;34.47;27.00;;;;;;;;;;5023010;28;20033;-72
2023/01/30 14:07:13;;;;;;;45.35;32.85;;;;;;;;;;5024140;28;20048;-71
2023/01/30 14:09:43;;;;;;;91.40;66.53;;;;;;;;;;5025874;28;20056;-71
2023/01/30 14:12:22;;;;;;;78.65;40.72;;;;;;;;;;5022652;28;20018;-71
2023/01/30 14:15:05;;;;;;;42.60;33.63;;;;;;;;;;5023080;28;20112;-74
2023/01/30 14:17:30;;;;;;;47.90;37.60;;;;;;;;;;5025606;28;20038;-74
2023/01/30 14:19:56;;;;;;;49.08;38.45;;;;;;;;;;5026872;28;20083;-73
2023/01/30 14:22:32;;;;;;;46.45;37.50;;;;;;;;;;5021347;28;20022;-74
2023/01/30 14:25:16;;;;;;;44.22;36.88;;;;;;;;;;5009648;28;20525;-72
2023/01/30 14:27:42;;;;;;;38.67;31.00;;;;;;;;;;5012376;28;20033;-72
2023/01/30 14:30:26;;;;;;;46.42;38.45;;;;;;;;;;5022712;28;20037;-71